Edward F Knapp State Airport Barre, Montpelier US
ICAO: KMPV
IATA: MPV
Category: Medium
Scheduled Services: No

Elevation: 1166 ft
TransAlt. 18000 ft.

Airport Communications:
ASOS:132.675
BOSTON CNTR:135.7
BURLINGTON RDO:122.6
CTAF/UNICOM:122.8

KMPV Zoom In..

Runways:

(A) RW 05 length 4022 ft width 100 ft
---- / hdg 48

(B) RW 17 length 5002 ft width 100 ft
ILS 108.70 / hdg 168

(C) RW 23 length 4022 ft width 100 ft
---- / hdg 228

(D) RW 35 length 5002 ft width 100 ft
---- / hdg 348

Location; KMPV
Day. 20 / Time. 09.51 Zulu
* Altimeter: 29.96
* Temperature: -02° c. -28.4°f.
* Wind from: 300° Speed 13 kn with Gusts up to 20 kn.
Dewpoint: -03° c.
Visibility: 10 Statute Miles.
Clouds: Overcast 1600 ft.

KMPV 200951Z AUTO 30013G20KT 10SM OVC016 M02/M03 A2996 RMK AO2 SNE20 SLP162 P0000 T10171033


Wind From 300°
Speed 13 kn.

  YouTube Music Video
 
jpsmedia.com for Web Design  worldairports.se 2018   terms of use